createdAt,value
2019-01-14T00:01:01.215Z,89.09
2019-01-14T00:06:26.258Z,88.58
2019-01-14T00:08:55.582Z,88.85
2019-01-14T00:11:44.200Z,89.02
2019-01-14T00:14:13.529Z,88.96
2019-01-14T00:16:43.138Z,87.13
2019-01-14T00:19:14.600Z,87.13
2019-01-14T00:21:44.064Z,86.29
2019-01-14T00:24:15.304Z,85.70
2019-01-14T00:26:44.945Z,85.46
2019-01-14T00:29:14.364Z,85.01
2019-01-14T00:31:44.003Z,85.40
2019-01-14T00:34:13.697Z,85.32
2019-01-14T00:36:43.174Z,85.58
2019-01-14T00:39:12.500Z,85.56
2019-01-14T00:41:43.460Z,84.51
2019-01-14T00:44:13.125Z,84.61
2019-01-14T00:46:42.451Z,85.06
2019-01-14T00:52:00.699Z,85.49
2019-01-14T00:54:30.366Z,85.89
2019-01-14T00:56:59.710Z,85.71
2019-01-14T00:59:29.315Z,85.10
2019-01-14T01:01:58.652Z,85.30
2019-01-14T01:04:40.753Z,85.46
2019-01-14T01:07:10.443Z,85.46
2019-01-14T01:09:40.060Z,85.71
2019-01-14T01:14:48.726Z,85.72
2019-01-14T01:17:18.365Z,85.36
2019-01-14T01:19:47.689Z,85.42
2019-01-14T01:22:18.653Z,85.66
2019-01-14T01:24:48.226Z,86.16
2019-01-14T01:27:17.866Z,85.95
2019-01-14T01:30:00.271Z,85.12
2019-01-14T01:32:29.605Z,85.12
2019-01-14T01:35:19.320Z,85.37
2019-01-14T01:37:48.942Z,85.37
2019-01-14T01:40:20.459Z,83.77
2019-01-14T01:42:51.457Z,83.46
2019-01-14T01:45:20.779Z,83.54
2019-01-14T01:47:50.395Z,83.62
2019-01-14T01:50:19.856Z,83.60
2019-01-14T01:52:49.419Z,83.67
2019-01-14T01:55:18.742Z,83.89
2019-01-14T01:57:48.371Z,84.00
2019-01-14T02:00:39.055Z,84.37
2019-01-14T02:03:08.822Z,84.57
2019-01-14T02:08:26.693Z,84.86
2019-01-14T02:10:57.639Z,84.94
2019-01-14T02:13:26.984Z,84.99
2019-01-14T02:15:56.493Z,85.27
2019-01-14T02:18:25.861Z,85.06
2019-01-14T02:20:55.465Z,85.12
2019-01-14T02:23:24.811Z,85.03
2019-01-14T02:25:54.375Z,85.16
2019-01-14T02:28:24.014Z,85.18
2019-01-14T02:30:53.586Z,85.28
2019-01-14T02:33:22.935Z,85.07
2019-01-14T02:35:52.576Z,84.94
2019-01-14T02:38:21.921Z,85.05
2019-01-14T02:40:51.457Z,85.02
2019-01-14T02:43:21.096Z,85.00
2019-01-14T02:45:50.604Z,85.30
2019-01-14T02:48:20.012Z,85.40
2019-01-14T02:50:49.580Z,85.62
2019-01-14T02:53:38.298Z,85.34
2019-01-14T02:56:08.929Z,85.03
2019-01-14T02:58:38.779Z,85.50
2019-01-14T03:01:09.553Z,84.48
2019-01-14T03:03:38.888Z,84.42
2019-01-14T03:09:18.001Z,84.68
2019-01-14T03:11:47.509Z,84.02
2019-01-14T03:14:16.869Z,83.96
2019-01-14T03:16:46.523Z,83.64
2019-01-14T03:19:16.464Z,83.41
2019-01-14T03:22:00.191Z,83.31
2019-01-14T03:24:29.666Z,83.02
2019-01-14T03:26:59.029Z,82.86
2019-01-14T03:29:28.731Z,82.88
2019-01-14T03:31:58.067Z,82.93
2019-01-14T03:34:27.639Z,82.32
2019-01-14T03:36:56.977Z,82.26
2019-01-14T03:39:26.610Z,82.30
2019-01-14T03:41:55.931Z,82.57
2019-01-14T03:44:25.569Z,82.18
2019-01-14T03:46:55.207Z,82.04
2019-01-14T03:49:24.838Z,81.39
2019-01-14T03:51:54.414Z,81.98
2019-01-14T03:55:04.263Z,81.35
2019-01-14T03:57:33.809Z,80.83
2019-01-14T04:03:05.874Z,80.50
2019-01-14T04:05:35.569Z,80.25
2019-01-14T04:08:04.912Z,80.29
2019-01-14T04:10:34.511Z,80.32
2019-01-14T04:13:22.980Z,80.77
2019-01-14T04:15:52.598Z,81.03
2019-01-14T04:18:22.235Z,80.90
2019-01-14T04:20:51.834Z,81.19
2019-01-14T04:23:21.196Z,81.39
2019-01-14T04:25:50.817Z,81.54
2019-01-14T04:28:20.238Z,81.63
2019-01-14T04:30:50.027Z,81.78
2019-01-14T04:33:19.356Z,81.80
2019-01-14T04:35:48.887Z,82.01
2019-01-14T04:38:18.310Z,82.11
2019-01-14T04:40:47.769Z,82.33
2019-01-14T04:43:18.217Z,82.30
2019-01-14T04:45:47.719Z,82.54
2019-01-14T04:48:17.304Z,82.57
2019-01-14T04:50:46.749Z,82.66
2019-01-14T04:53:16.318Z,82.68
2019-01-14T04:55:46.812Z,82.91
2019-01-14T04:58:16.148Z,82.98
2019-01-14T05:00:45.767Z,83.08
2019-01-14T05:03:15.104Z,83.24
2019-01-14T05:05:44.440Z,83.48
2019-01-14T05:08:14.065Z,83.43
2019-01-14T05:10:43.960Z,83.72
2019-01-14T05:13:13.655Z,83.94
2019-01-14T05:15:43.270Z,83.91
2019-01-14T05:18:13.036Z,84.06
2019-01-14T05:20:42.386Z,84.26
2019-01-14T05:23:12.019Z,84.50
2019-01-14T05:25:41.364Z,84.78
2019-01-14T05:28:10.984Z,85.01
2019-01-14T05:30:40.330Z,85.39
2019-01-14T05:33:28.808Z,85.56
2019-01-14T05:35:58.151Z,85.68
2019-01-14T05:38:27.776Z,86.04
2019-01-14T05:40:57.376Z,86.16
2019-01-14T05:43:27.000Z,86.29
2019-01-14T05:46:36.379Z,86.35
2019-01-14T05:49:05.873Z,86.57
2019-01-14T05:51:35.220Z,86.60
2019-01-14T05:57:00.353Z,86.68
2019-01-14T05:59:29.976Z,86.86
2019-01-14T06:01:59.554Z,86.86
2019-01-14T06:04:28.918Z,86.27
2019-01-14T06:10:02.137Z,86.16
2019-01-14T06:12:31.767Z,85.81
2019-01-14T06:15:01.143Z,86.21
2019-01-14T06:17:30.478Z,87.14
2019-01-14T06:20:00.434Z,87.59
2019-01-14T06:22:30.970Z,87.00
2019-01-14T06:25:00.296Z,86.84
2019-01-14T06:27:30.169Z,87.09
2019-01-14T06:30:18.630Z,87.12
2019-01-14T06:32:48.160Z,87.24
2019-01-14T06:35:17.516Z,87.47
2019-01-14T06:37:52.318Z,87.36
2019-01-14T06:40:34.338Z,87.15
2019-01-14T06:43:04.246Z,86.65
2019-01-14T06:45:33.884Z,86.83
2019-01-14T06:48:03.219Z,86.83
2019-01-14T06:53:15.516Z,86.30
2019-01-14T06:55:45.063Z,86.14
2019-01-14T06:58:14.625Z,86.47
2019-01-14T07:00:44.016Z,86.14
2019-01-14T07:03:13.347Z,86.01
2019-01-14T07:05:42.692Z,85.57
2019-01-14T07:08:12.607Z,85.66
2019-01-14T07:10:42.144Z,85.03
2019-01-14T07:13:11.552Z,85.26
2019-01-14T07:15:41.134Z,85.17
2019-01-14T07:18:10.765Z,85.08
2019-01-14T07:20:40.179Z,85.06
2019-01-14T07:23:09.612Z,85.54
2019-01-14T07:25:39.162Z,84.95
2019-01-14T07:28:09.444Z,84.97
2019-01-14T07:30:39.348Z,84.12
2019-01-14T07:33:28.822Z,84.21
2019-01-14T07:35:58.309Z,84.21
2019-01-14T07:38:28.527Z,84.37
2019-01-14T07:40:58.387Z,84.49
2019-01-14T07:43:28.276Z,84.95
2019-01-14T07:45:57.877Z,85.59
2019-01-14T07:48:27.219Z,85.00
2019-01-14T07:54:11.418Z,84.93
2019-01-14T07:59:33.649Z,84.37
2019-01-14T08:02:03.526Z,84.37
2019-01-14T08:04:33.177Z,84.26
2019-01-14T08:07:02.534Z,84.54
2019-01-14T08:09:32.206Z,84.94
2019-01-14T08:12:41.836Z,84.83
2019-01-14T08:18:46.299Z,83.76
2019-01-14T08:21:15.950Z,83.54
2019-01-14T08:23:57.880Z,83.22
2019-01-14T08:26:27.498Z,83.12
2019-01-14T08:28:56.861Z,83.15
2019-01-14T08:31:26.308Z,82.78
2019-01-14T08:33:55.642Z,82.51
2019-01-14T08:36:25.584Z,81.78
2019-01-14T08:38:54.920Z,81.12
2019-01-14T08:47:01.470Z,82.10
2019-01-14T08:49:30.790Z,82.47
2019-01-14T08:52:00.339Z,82.68
2019-01-14T08:54:29.666Z,82.50
2019-01-14T08:56:59.012Z,82.50
2019-01-14T08:59:28.472Z,82.46
2019-01-14T09:01:57.823Z,82.80
2019-01-14T09:04:39.876Z,83.06
2019-01-14T09:07:09.725Z,83.06
2019-01-14T09:09:39.358Z,82.91
2019-01-14T09:12:10.898Z,83.17
2019-01-14T09:14:40.505Z,83.50
2019-01-14T09:17:10.219Z,83.37
2019-01-14T09:19:39.547Z,82.61
2019-01-14T09:22:17.626Z,81.77
2019-01-14T09:24:46.946Z,81.01
2019-01-14T09:27:16.642Z,78.40
2019-01-14T09:29:46.246Z,78.49
2019-01-14T09:32:15.967Z,77.74
2019-01-14T09:37:54.902Z,77.73
2019-01-14T09:40:24.593Z,77.00
2019-01-14T09:42:53.936Z,75.50
2019-01-14T09:45:43.089Z,73.83
2019-01-14T09:48:13.696Z,73.83
2019-01-14T09:50:43.263Z,72.58
2019-01-14T09:53:12.837Z,69.28
2019-01-14T09:55:42.454Z,70.22
2019-01-14T09:58:13.714Z,69.08
2019-01-14T10:00:43.039Z,67.37
2019-01-14T10:03:12.670Z,67.23
2019-01-14T10:05:41.995Z,67.72
2019-01-14T10:08:11.630Z,67.15
2019-01-14T10:10:41.227Z,66.35
2019-01-14T10:13:10.567Z,66.38
2019-01-14T10:15:39.890Z,65.50
2019-01-14T10:18:09.961Z,64.45
2019-01-14T10:20:39.581Z,64.97
2019-01-14T10:23:10.028Z,64.01
2019-01-14T10:25:39.651Z,63.81
2019-01-14T10:28:10.000Z,63.79
2019-01-14T10:30:39.645Z,62.98
2019-01-14T10:33:29.244Z,60.50
2019-01-14T10:35:58.684Z,60.50
2019-01-14T10:38:28.030Z,61.09
2019-01-14T10:40:57.616Z,60.54
2019-01-14T10:43:26.961Z,60.30
2019-01-14T10:45:56.578Z,59.95
2019-01-14T10:48:26.213Z,60.62
2019-01-14T10:50:55.796Z,61.87
2019-01-14T10:53:25.463Z,63.52
2019-01-14T10:55:54.788Z,62.88
2019-01-14T10:58:24.137Z,63.33
2019-01-14T11:01:05.640Z,65.10
2019-01-14T11:03:34.984Z,65.10
2019-01-14T11:09:09.610Z,67.27
2019-01-14T11:11:59.865Z,68.42
2019-01-14T11:14:29.204Z,69.93
2019-01-14T11:16:58.673Z,70.67
2019-01-14T11:19:28.037Z,70.67
2019-01-14T11:22:17.050Z,70.55
2019-01-14T11:27:30.016Z,71.11
2019-01-14T11:29:59.354Z,71.98
2019-01-14T11:32:28.867Z,72.32
2019-01-14T11:34:58.209Z,73.06
2019-01-14T11:37:29.484Z,73.59
2019-01-14T11:39:58.873Z,74.40
2019-01-14T11:42:28.199Z,75.37
2019-01-14T11:44:57.854Z,76.86
2019-01-14T11:47:27.190Z,78.36
2019-01-14T11:49:57.073Z,80.68
2019-01-14T11:52:26.431Z,82.38
2019-01-14T11:54:55.974Z,83.91
2019-01-14T11:57:25.302Z,82.43
2019-01-14T11:59:54.790Z,82.21
2019-01-14T12:02:24.116Z,82.55
2019-01-14T12:04:53.752Z,83.39
2019-01-14T12:07:23.610Z,82.28
2019-01-14T12:10:05.472Z,81.46
2019-01-14T12:12:47.268Z,80.65
2019-01-14T12:15:56.944Z,80.65
2019-01-14T12:18:26.273Z,80.21
2019-01-14T12:21:07.979Z,78.81
2019-01-14T12:23:38.041Z,78.81
2019-01-14T12:26:07.380Z,77.08
2019-01-14T12:28:49.072Z,76.35
2019-01-14T12:31:18.415Z,76.35
2019-01-14T12:33:48.029Z,75.03
2019-01-14T12:36:17.373Z,75.03
2019-01-14T17:38:44.288Z,88.01
2019-01-14T17:41:14.482Z,88.19
2019-01-14T17:43:43.864Z,88.14
2019-01-14T17:46:13.216Z,88.21
2019-01-14T17:48:42.645Z,88.07
2019-01-14T17:51:12.285Z,88.10
2019-01-14T17:53:43.565Z,88.01
2019-01-14T17:56:12.969Z,87.67
2019-01-14T17:58:55.359Z,87.52
2019-01-14T18:01:32.996Z,87.49
2019-01-14T18:04:02.622Z,87.57
2019-01-14T18:06:32.048Z,87.33
2019-01-14T18:11:42.812Z,88.50
2019-01-14T18:14:24.869Z,89.27
2019-01-14T18:16:54.237Z,89.86
2019-01-14T18:19:23.868Z,90.24
2019-01-14T18:21:53.244Z,90.75
2019-01-14T18:24:23.199Z,90.61
2019-01-14T18:26:52.746Z,90.53
2019-01-14T18:29:22.366Z,89.77
2019-01-14T18:32:12.907Z,89.69
2019-01-14T18:35:01.746Z,89.22
2019-01-14T18:37:31.095Z,88.80
2019-01-14T18:40:00.722Z,88.67
2019-01-14T18:42:30.078Z,88.79
2019-01-14T18:44:59.696Z,89.00
2019-01-14T18:47:29.036Z,89.29
2019-01-14T18:49:58.621Z,89.21
2019-01-14T18:52:27.954Z,89.28
2019-01-14T18:54:57.578Z,89.15
2019-01-14T18:57:27.035Z,88.73
2019-01-14T19:00:08.717Z,88.58
2019-01-14T19:02:38.059Z,88.58
2019-01-14T19:08:41.842Z,88.26
2019-01-14T19:11:11.278Z,87.95
2019-01-14T19:13:40.881Z,87.60
2019-01-14T19:16:12.165Z,87.58
2019-01-14T19:18:41.797Z,87.72
2019-01-14T19:21:11.237Z,87.91
2019-01-14T19:23:41.584Z,88.20
2019-01-14T19:26:11.348Z,88.32
2019-01-14T19:28:40.998Z,88.75
2019-01-14T19:31:11.608Z,88.86
2019-01-14T19:33:41.209Z,88.92
2019-01-14T19:36:11.227Z,88.72
2019-01-14T19:38:40.857Z,88.49
2019-01-14T19:41:11.202Z,88.27
2019-01-14T19:43:40.939Z,88.12
2019-01-14T19:46:11.617Z,87.61
2019-01-14T19:48:40.988Z,86.75
2019-01-14T19:51:11.266Z,86.49
2019-01-14T19:53:41.076Z,86.36
2019-01-14T19:56:11.437Z,85.97
2019-01-14T19:58:41.813Z,85.64
2019-01-14T20:01:11.419Z,85.44
2019-01-14T20:03:41.241Z,85.39
2019-01-14T20:06:11.318Z,85.10
2019-01-14T20:09:00.341Z,84.71
2019-01-14T20:11:29.967Z,84.82
2019-01-14T20:13:59.307Z,84.66
2019-01-14T20:16:28.636Z,84.27
2019-01-14T20:18:58.209Z,84.29
2019-01-14T20:21:27.835Z,84.22
2019-01-14T20:23:57.170Z,84.04
2019-01-14T20:26:26.498Z,83.97
2019-01-14T20:28:56.383Z,83.76
2019-01-14T20:31:26.001Z,83.64
2019-01-14T20:33:55.347Z,83.67
2019-01-14T20:36:25.502Z,83.66
2019-01-14T20:38:55.012Z,84.08
2019-01-14T20:41:24.649Z,83.97
2019-01-14T20:43:54.606Z,84.26
2019-01-14T20:46:24.220Z,84.37
2019-01-14T20:48:53.564Z,84.41
2019-01-14T20:51:23.256Z,84.48
2019-01-14T20:53:53.108Z,84.36
2019-01-14T20:56:22.756Z,84.24
2019-01-14T20:58:52.146Z,84.28
2019-01-14T21:01:21.513Z,84.41
2019-01-14T21:03:51.170Z,84.15
2019-01-14T21:06:22.411Z,83.96
2019-01-14T21:08:59.635Z,84.18
2019-01-14T21:11:29.500Z,83.82
2019-01-14T21:13:59.070Z,83.64
2019-01-14T21:16:28.975Z,83.76
2019-01-14T21:18:58.592Z,83.53
2019-01-14T21:24:37.331Z,83.06
2019-01-14T21:27:06.686Z,83.31
2019-01-14T21:29:36.328Z,83.03
2019-01-14T21:32:05.655Z,83.08
2019-01-14T21:34:35.234Z,83.08
2019-01-14T21:37:04.572Z,83.07
2019-01-14T21:39:34.103Z,82.79
2019-01-14T21:42:03.427Z,82.87
2019-01-14T21:44:32.787Z,83.14
2019-01-14T21:47:02.469Z,83.11
2019-01-14T21:49:32.148Z,83.41
2019-01-14T21:52:22.633Z,83.65
2019-01-14T21:55:13.111Z,83.62
2019-01-14T21:57:42.473Z,83.39
2019-01-14T22:03:22.870Z,83.53
2019-01-14T22:05:52.333Z,82.49
2019-01-14T22:08:21.905Z,82.70
2019-01-14T22:10:51.263Z,82.60
2019-01-14T22:13:20.665Z,82.26
2019-01-14T22:15:50.296Z,82.30
2019-01-14T22:18:19.624Z,82.31
2019-01-14T22:21:29.301Z,82.02
2019-01-14T22:23:58.632Z,82.24
2019-01-14T22:29:08.651Z,82.39
2019-01-14T22:31:38.290Z,82.53
2019-01-14T22:34:07.622Z,82.75
2019-01-14T22:36:37.272Z,83.03
2019-01-14T22:39:46.641Z,83.32
2019-01-14T22:42:19.176Z,83.30
2019-01-14T22:44:48.902Z,83.58
2019-01-14T22:50:22.353Z,84.32
2019-01-14T22:52:53.308Z,84.47
2019-01-14T22:58:24.567Z,84.78
2019-01-14T23:01:34.291Z,85.00
2019-01-14T23:13:55.869Z,85.57
2019-01-14T23:16:44.824Z,85.58
2019-01-14T23:19:33.390Z,86.11
2019-01-14T23:22:22.880Z,86.11
2019-01-14T23:25:55.733Z,85.87
2019-01-14T23:31:48.368Z,86.23
2019-01-14T23:34:17.735Z,86.46
2019-01-14T23:36:47.406Z,86.63
2019-01-14T23:39:16.741Z,86.95
2019-01-14T23:41:46.390Z,87.18
2019-01-14T23:44:17.642Z,87.17
2019-01-14T23:46:48.454Z,87.29
2019-01-14T23:49:38.466Z,87.53
2019-01-14T23:52:17.753Z,87.54
2019-01-14T23:55:06.800Z,88.12
2019-01-14T23:57:36.427Z,88.12
